Crawfordsville, IN (47939)

7:43 PM EDT on July 23, 2014 (GMT -0400)
Wabash College Campus (KINCRAWF3) Elev 778 ft | 40.04 °N, 86.91 °W | Change Station

Current weather conditions updated 12 seconds ago

Clear
Clear
75.4 °F
Feels Like 78 °F
N
13.0
Wind Variable Wind from South
Gusts 13.0 mph

Tomorrow is forecast to be Cooler than today.

Today
High -- | Low -- °F
--% Chance of Precip.
Yesterday
High -- | Low -- °F
Precip. -- in
6:37 AM 9:09 PM
Waning Crescent, 8% visible
Pressure 30.05 in
Visibility 10.0 miles
Clouds Clear
Heat Index 78 °F
Dew Point 54 °F
Humidity 47%
Rainfall 0.00 in
Snow Depth Not available.
UV 2 out of 12
Pollen 6.10 out of 12
Air Quality Not available.
Flu Activity Not available.
METAR KLAF 232254Z 35013KT 10SM CLR 22/13 A3006 RMK AO2 SLP174 T02220128

More Conditions Fewer Conditions

Pressure 30.05 in
Visibility 10.0 miles
Clouds Clear
Heat Index 78 °F
Dew Point 54 °F
Humidity 47%
Rainfall 0.00 in
Snow Depth Not available.
UV 2 out of 12
Pollen 6.10 out of 12
Air Quality Not available.
Flu Activity Not available.
METAR KLAF 232254Z 35013KT 10SM CLR 22/13 A3006 RMK AO2 SLP174 T02220128

More Conditions Fewer Conditions

10-Day Weather Forecast

Almanac

Astronomy

Jul. 23, 2014 Rise Set
Actual Time 6:37 AM EDT 9:09 PM EDT
Civil Twilight 6:06 AM EDT 9:41 PM EDT
Nautical Twilight 5:27 AM EDT 10:19 PM EDT
Astronomical Twilight 4:44 AM EDT 11:02 PM EDT
Moon 3:56 AM EDT 6:38 PM EDT
Length of Visible Light 15h 34m
Length of Day
14h 32m
Tomorrow will be 1m 43s shorter.
Waning Crescent, 8% of the Moon is Illuminated
Today
Waning Crescent
Jul 26
New
Aug 3
First Quarter
Aug 10
Full
Aug 17
Last Quarter

Today's Extremes

State Highs State Lows

Community

WunderPhotos

Upload Photos

1,736,817 photos uploaded!

Nearby

Snow Depth

Station Depth Elevation
No new snow has been reported.

Earthquake Activity

City Distance Mag. Time & Date
No recent earthquake activity has been reported nearby.
Minimum magnitude displayed is 2.5.

Coastal Water Temperatures

Place Temperature
No Stations Reporting

Nearby Weather Stations

Station Location Temp. Heat Index Dew Point Humidity Wind Precip. Elev Updated Type
Wabash College Campus, Crawfordsville, IN 75.4 °F 78 °F 54 °F 47% South  at  13.0 mph 0.00 in / hr 778 ft 7:42 PM EDT Rapid Fire
116 S Walnut St, Ladoga, IN 77.2 °F 79 °F 70 °F 78% WSW  at  2.0 mph 0.00 in / hr 833 ft 4:10 PM EDT Normal
Romney, IN 70.9 °F 75 °F 59 °F 67% North  at  6.0 mph - / hr 738 ft 7:37 PM EDT Normal
Ash Street, Jamestown, IN 70.3 °F 74 °F 60 °F 70% West  at  5.0 mph 0.00 in / hr 974 ft 7:40 PM EDT Normal
Bainbridge, Bainbridge, IN 76.1 °F 78 °F 67 °F 73% South  at  3.0 mph 0.00 in / hr 872 ft 5:24 PM CDT Normal
Greencastle, IN 72.2 °F 74 °F 63 °F 72% NW  at  2.0 mph - / hr 814 ft 7:41 PM EDT Normal
Rockville, IN 73.9 °F 76 °F 63 °F 68% NNW  at  4.0 mph 0.00 in / hr 702 ft 7:42 PM EDT Rapid Fire

Show More Stations Show Fewer Stations